Time;durP1;ratioP1;P1;durP2;ratioP2;P2;SDS_P1;SDS_P2;PMS_P1;PMS_P2;Temp;Humidity;BMP_temperature;BMP_pressure;BME280_temperature;BME280_humidity;BME280_pressure;Samples;Min_cycle;Max_cycle;Signal;HPM_P1;HPM_P2
2022/08/17 00:01:59;;;;;;;0.30;0.30;;;16.90;11.70;;;;;;5050271;28;20695;-73
2022/08/17 00:04:25;;;;;;;0.40;0.40;;;16.90;7.00;;;;;;5050323;28;20187;-73
2022/08/17 00:06:52;;;;;;;0.30;0.30;;;16.80;24.80;;;;;;5049779;28;20271;-74
2022/08/17 00:09:18;;;;;;;0.30;0.30;;;16.80;45.60;;;;;;5049115;28;20179;-74
2022/08/17 00:11:44;;;;;;;0.40;0.40;;;16.70;44.90;;;;;;5050038;28;20175;-74
2022/08/17 00:14:16;;;;;;;0.37;0.37;;;16.50;71.80;;;;;;5049926;28;20562;-74
2022/08/17 00:16:48;;;;;;;0.40;0.40;;;16.60;65.60;;;;;;5050045;28;20209;-74
2022/08/17 00:19:16;;;;;;;0.40;0.40;;;16.70;33.50;;;;;;5049282;28;20591;-74
2022/08/17 00:21:45;;;;;;;0.40;0.40;;;16.70;26.70;;;;;;5049460;28;20179;-73
2022/08/17 00:24:10;;;;;;;0.40;0.40;;;16.80;14.50;;;;;;5048538;28;20222;-74
2022/08/17 00:26:36;;;;;;;0.37;0.37;;;16.70;24.30;;;;;;5052959;28;20213;-74
2022/08/17 00:29:03;;;;;;;0.40;0.40;;;16.70;67.20;;;;;;5054303;28;20181;-74
2022/08/17 00:31:28;;;;;;;0.43;0.43;;;16.60;85.80;;;;;;5052935;28;20656;-74
2022/08/17 00:33:54;;;;;;;0.40;0.40;;;16.70;65.30;;;;;;5052638;28;20342;-74
2022/08/17 00:36:20;;;;;;;0.37;0.37;;;16.60;47.90;;;;;;5040975;28;20294;-74
2022/08/17 00:38:46;;;;;;;0.40;0.40;;;16.50;44.10;;;;;;5052771;28;20528;-74
2022/08/17 00:41:17;;;;;;;0.40;0.40;;;16.60;34.90;;;;;;5053224;28;20182;-74
2022/08/17 00:43:47;;;;;;;0.50;0.50;;;16.60;39.80;;;;;;5054006;28;20199;-73
2022/08/17 00:46:20;;;;;;;0.40;0.40;;;16.60;41.20;;;;;;5055280;28;20175;-73
2022/08/17 00:48:46;;;;;;;0.47;0.47;;;16.30;79.80;;;;;;5055093;28;20525;-73
2022/08/17 00:51:17;;;;;;;0.37;0.37;;;16.30;99.90;;;;;;5054587;28;20172;-73
2022/08/17 00:53:49;;;;;;;0.50;0.50;;;16.10;99.90;;;;;;5055251;28;20199;-74
2022/08/17 00:56:21;;;;;;;0.40;0.40;;;16.10;99.90;;;;;;5054833;28;20750;-73
2022/08/17 00:58:50;;;;;;;0.40;0.40;;;16.30;99.90;;;;;;5040596;28;20282;-74
2022/08/17 01:01:16;;;;;;;0.50;0.50;;;16.30;99.90;;;;;;5052798;28;20179;-74
2022/08/17 01:03:42;;;;;;;0.30;0.30;;;16.10;99.90;;;;;;5052124;28;20218;-74
2022/08/17 01:06:09;;;;;;;0.40;0.40;;;16.30;99.90;;;;;;5052356;28;20571;-74
2022/08/17 01:08:37;;;;;;;0.40;0.40;;;16.40;95.70;;;;;;5052552;28;20171;-75
2022/08/17 01:11:04;;;;;;;0.40;0.40;;;16.40;81.00;;;;;;5052102;28;20588;-74
2022/08/17 01:13:41;;;;;;;0.47;0.47;;;16.40;67.30;;;;;;5052598;28;20221;-75
2022/08/17 01:16:16;;;;;;;0.40;0.40;;;16.40;63.60;;;;;;5052466;28;20210;-74
2022/08/17 01:18:44;;;;;;;0.40;0.40;;;16.40;62.10;;;;;;5052489;28;20167;-74
2022/08/17 01:21:21;;;;;;;0.30;0.30;;;16.30;77.30;;;;;;5051853;28;20237;-74
2022/08/17 01:23:46;;;;;;;0.40;0.40;;;16.30;71.50;;;;;;5052001;28;20262;-74
2022/08/17 01:26:12;;;;;;;0.40;0.40;;;16.30;76.60;;;;;;5052050;28;20718;-74
2022/08/17 01:28:38;;;;;;;0.40;0.40;;;16.30;75.20;;;;;;5053747;28;20179;-74
2022/08/17 01:31:06;;;;;;;0.30;0.30;;;16.30;63.60;;;;;;5051725;28;20214;-74
2022/08/17 01:33:31;;;;;;;0.30;0.30;;;16.10;90.20;;;;;;5052330;28;20211;-74
2022/08/17 01:35:59;;;;;;;0.40;0.40;;;16.20;97.10;;;;;;5052098;28;20276;-74
2022/08/17 01:38:30;;;;;;;0.37;0.37;;;16.30;83.30;;;;;;5051827;28;20183;-74
2022/08/17 01:41:00;;;;;;;0.40;0.40;;;16.30;71.30;;;;;;5051157;28;20649;-74
2022/08/17 01:43:29;;;;;;;0.50;0.50;;;16.20;65.50;;;;;;5051604;28;20661;-74
2022/08/17 01:45:55;;;;;;;0.30;0.30;;;16.10;53.60;;;;;;5051769;28;20179;-74
2022/08/17 01:48:22;;;;;;;0.30;0.30;;;16.00;87.70;;;;;;5051844;28;20228;-74
2022/08/17 01:50:50;;;;;;;0.50;0.50;;;16.00;98.70;;;;;;5049570;28;20249;-74
2022/08/17 01:53:31;;;;;;;0.40;0.40;;;16.00;90.00;;;;;;5051826;28;20264;-74
2022/08/17 01:56:09;;;;;;;0.50;0.50;;;16.00;82.80;;;;;;5050727;28;20679;-74
2022/08/17 01:58:36;;;;;;;0.40;0.40;;;16.10;83.30;;;;;;5051012;28;20182;-74
2022/08/17 02:01:04;;;;;;;0.40;0.40;;;16.00;62.50;;;;;;5050584;28;20656;-74
2022/08/17 02:03:31;;;;;;;0.50;0.50;;;15.90;70.10;;;;;;5051334;28;20218;-74
2022/08/17 02:05:56;;;;;;;0.30;0.30;;;15.80;99.90;;;;;;5050871;28;20186;-73
2022/08/17 02:08:23;;;;;;;0.40;0.40;;;15.80;96.10;;;;;;5051582;28;20179;-74
2022/08/17 02:10:49;;;;;;;0.40;0.40;;;15.70;92.00;;;;;;5051065;28;20179;-74
2022/08/17 02:13:15;;;;;;;0.50;0.50;;;15.80;99.90;;;;;;5051534;28;20210;-73
2022/08/17 02:15:41;;;;;;;0.40;0.40;;;15.70;99.90;;;;;;5050997;28;20687;-74
2022/08/17 02:18:09;;;;;;;0.40;0.40;;;15.80;99.90;;;;;;5049837;28;20182;-74
2022/08/17 02:20:36;;;;;;;0.40;0.40;;;15.80;99.90;;;;;;5051035;28;20567;-74
2022/08/17 02:23:02;;;;;;;0.40;0.40;;;15.80;99.90;;;;;;5051896;28;20208;-74
2022/08/17 02:25:30;;;;;;;0.30;0.30;;;15.80;99.90;;;;;;5051117;28;20580;-73
2022/08/17 02:27:56;;;;;;;0.37;0.37;;;15.60;99.90;;;;;;5052868;28;20268;-74
2022/08/17 02:30:23;;;;;;;0.40;0.40;;;15.70;99.90;;;;;;5050468;28;20644;-74
2022/08/17 02:32:51;;;;;;;0.50;0.50;;;15.70;99.90;;;;;;5154789;22;20218;-76
2022/08/17 02:35:16;;;;;;;0.50;0.50;;;15.80;99.90;;;;;;5067892;28;20227;-76
2022/08/17 02:37:42;;;;;;;0.47;0.47;;;15.70;99.90;;;;;;5069922;28;20732;-76
2022/08/17 02:40:08;;;;;;;0.40;0.40;;;15.60;99.90;;;;;;5070727;28;20175;-76
2022/08/17 02:42:38;;;;;;;0.60;0.60;;;15.60;99.90;;;;;;5071439;28;20230;-76
2022/08/17 02:45:09;;;;;;;0.40;0.40;;;15.50;99.90;;;;;;5071080;28;20270;-76
2022/08/17 02:47:35;;;;;;;0.33;0.33;;;15.40;99.90;;;;;;5068356;28;20181;-75
2022/08/17 02:50:01;;;;;;;0.37;0.37;;;15.50;99.90;;;;;;5068973;28;20170;-76
2022/08/17 02:52:33;;;;;;;0.40;0.40;;;15.50;99.90;;;;;;5070702;28;20191;-75
2022/08/17 02:54:59;;;;;;;0.40;0.40;;;15.50;99.90;;;;;;5071155;28;20659;-75
2022/08/17 02:57:24;;;;;;;0.30;0.30;;;15.50;99.90;;;;;;5071209;28;20240;-76
2022/08/17 02:59:50;;;;;;;0.30;0.30;;;15.50;99.90;;;;;;5070581;28;20166;-75
2022/08/17 03:02:15;;;;;;;0.40;0.40;;;15.50;99.90;;;;;;5051440;28;20182;-75
2022/08/17 03:04:41;;;;;;;0.40;0.40;;;15.50;99.90;;;;;;5062068;28;20205;-75
2022/08/17 03:07:07;;;;;;;0.40;0.40;;;15.50;99.90;;;;;;5070992;28;20174;-75
2022/08/17 03:09:32;;;;;;;0.40;0.40;;;15.50;99.90;;;;;;5070614;28;20257;-75
2022/08/17 03:12:11;;;;;;;0.40;0.40;;;15.40;99.90;;;;;;5070945;28;20222;-75
2022/08/17 03:14:38;;;;;;;0.40;0.40;;;15.20;99.90;;;;;;5070430;28;20651;-76
2022/08/17 03:17:04;;;;;;;0.37;0.37;;;15.20;99.90;;;;;;5067987;28;20210;-75
2022/08/17 03:19:29;;;;;;;0.40;0.40;;;15.10;99.90;;;;;;5077524;28;20628;-75
2022/08/17 03:21:57;;;;;;;0.53;0.53;;;15.10;99.90;;;;;;5079958;28;20643;-76
2022/08/17 03:24:23;;;;;;;0.40;0.40;;;15.20;99.90;;;;;;5071309;28;20194;-75
2022/08/17 03:26:48;;;;;;;0.50;0.50;;;15.20;99.90;;;;;;5070405;28;20178;-75
2022/08/17 03:29:17;;;;;;;0.40;0.40;;;15.20;99.90;;;;;;5073510;28;20182;-76
2022/08/17 03:31:45;;;;;;;0.50;0.50;;;15.20;99.90;;;;;;5070623;28;20185;-76
2022/08/17 03:34:11;;;;;;;0.30;0.30;;;15.30;99.90;;;;;;5070689;28;20213;-76
2022/08/17 03:36:37;;;;;;;0.40;0.40;;;15.30;99.90;;;;;;5071088;28;20703;-76
2022/08/17 03:39:03;;;;;;;0.50;0.50;;;15.30;99.90;;;;;;5070267;28;20296;-76
2022/08/17 03:41:29;;;;;;;0.40;0.40;;;15.30;99.90;;;;;;5070770;28;20193;-76
2022/08/17 03:43:55;;;;;;;0.40;0.40;;;15.30;99.90;;;;;;5070967;28;20585;-76
2022/08/17 03:57:23;;;;;;;0.40;0.40;;;14.90;99.90;;;;;;5085958;28;20236;-77
2022/08/17 03:59:49;;;;;;;0.40;0.40;;;14.70;99.90;;;;;;5082178;28;20182;-74
2022/08/17 04:02:17;;;;;;;0.50;0.50;;;14.60;99.90;;;;;;5082063;28;20194;-74
2022/08/17 04:04:43;;;;;;;0.50;0.50;;;14.80;99.90;;;;;;5082320;28;20689;-74
2022/08/17 04:07:08;;;;;;;0.40;0.40;;;14.80;99.90;;;;;;5065546;28;20246;-74
2022/08/17 04:09:35;;;;;;;0.50;0.50;;;14.80;99.90;;;;;;5084557;28;20274;-74
2022/08/17 04:12:00;;;;;;;0.40;0.40;;;14.70;99.90;;;;;;5084641;28;20182;-74
2022/08/17 04:14:26;;;;;;;0.40;0.40;;;14.70;99.90;;;;;;5085241;28;20195;-74
2022/08/17 04:16:52;;;;;;;0.50;0.50;;;14.70;99.90;;;;;;5082823;28;20244;-75
2022/08/17 04:19:18;;;;;;;0.40;0.40;;;14.80;99.90;;;;;;5073771;28;20166;-75
2022/08/17 04:21:43;;;;;;;0.40;0.40;;;14.80;99.90;;;;;;5074437;28;20174;-75
2022/08/17 04:24:09;;;;;;;0.37;0.37;;;14.80;99.90;;;;;;5074016;28;20273;-75
2022/08/17 04:26:34;;;;;;;0.40;0.40;;;14.80;99.90;;;;;;5074198;28;20175;-75
2022/08/17 04:29:00;;;;;;;0.43;0.43;;;14.90;99.90;;;;;;5074071;28;20177;-75
2022/08/17 04:31:26;;;;;;;0.47;0.47;;;14.90;99.90;;;;;;5072646;28;20185;-76
2022/08/17 04:33:53;;;;;;;0.50;0.50;;;14.80;99.90;;;;;;5073599;28;20228;-75
2022/08/17 04:36:18;;;;;;;0.40;0.40;;;14.80;99.90;;;;;;5073605;28;20581;-75
2022/08/17 04:38:45;;;;;;;0.40;0.40;;;14.90;99.90;;;;;;5073880;28;20201;-75
2022/08/17 04:44:13;;;;;;;0.40;0.40;;;14.90;99.90;;;;;;4990649;28;20675;-75
2022/08/17 04:46:39;;;;;;;0.37;0.37;;;14.90;99.90;;;;;;5056318;28;20179;-75
2022/08/17 04:49:07;;;;;;;0.50;0.50;;;14.90;99.90;;;;;;5073278;28;20270;-75
2022/08/17 04:51:38;;;;;;;0.40;0.40;;;15.20;99.90;;;;;;5073741;28;20205;-76
2022/08/17 04:54:12;;;;;;;0.33;0.33;;;15.30;99.90;;;;;;5071498;28;20709;-75
2022/08/17 04:56:39;;;;;;;0.33;0.33;;;15.00;99.90;;;;;;5073303;28;20209;-75
2022/08/17 04:59:08;;;;;;;0.40;0.40;;;14.80;99.90;;;;;;5072769;28;20315;-74
2022/08/17 05:01:36;;;;;;;0.30;0.30;;;14.80;99.90;;;;;;5073068;28;20275;-74
2022/08/17 05:04:06;;;;;;;0.50;0.50;;;14.80;99.90;;;;;;5072800;28;20210;-74
2022/08/17 05:06:32;;;;;;;0.30;0.30;;;14.90;99.90;;;;;;5073176;28;20174;-74
2022/08/17 05:08:58;;;;;;;0.53;0.53;;;15.10;99.90;;;;;;5068523;28;20545;-75
2022/08/17 05:11:26;;;;;;;0.40;0.40;;;15.30;99.90;;;;;;5072038;28;20218;-74
2022/08/17 05:13:53;;;;;;;0.40;0.40;;;15.40;99.90;;;;;;5071959;28;20190;-75
2022/08/17 05:16:21;;;;;;;0.43;0.43;;;15.50;99.90;;;;;;5072545;28;20679;-75
2022/08/17 05:18:47;;;;;;;0.40;0.40;;;15.70;99.90;;;;;;5072450;28;20651;-76
2022/08/17 05:21:13;;;;;;;0.40;0.40;;;15.90;99.90;;;;;;5072360;28;20194;-75
2022/08/17 05:23:40;;;;;;;0.40;0.40;;;15.90;99.90;;;;;;5073022;28;20202;-75
2022/08/17 05:26:06;;;;;;;0.40;0.40;;;15.70;99.90;;;;;;5072440;28;20194;-75
2022/08/17 05:28:31;;;;;;;0.50;0.50;;;15.70;99.90;;;;;;5072393;28;20179;-75
2022/08/17 05:31:00;;;;;;;0.40;0.40;;;15.60;99.90;;;;;;5072536;28;20658;-75
2022/08/17 05:33:28;;;;;;;0.40;0.40;;;15.40;99.90;;;;;;5072106;28;20210;-75
2022/08/17 05:35:55;;;;;;;0.30;0.30;;;15.60;99.90;;;;;;5066812;28;20206;-75
2022/08/17 05:38:22;;;;;;;0.50;0.50;;;15.90;99.90;;;;;;5067816;28;20210;-74
2022/08/17 05:40:48;;;;;;;0.40;0.40;;;16.30;99.90;;;;;;5060409;28;20285;-75
2022/08/17 05:43:18;;;;;;;0.40;0.40;;;16.50;99.90;;;;;;5072653;28;21057;-74
2022/08/17 05:45:52;;;;;;;0.50;0.50;;;16.40;99.90;;;;;;5065657;28;20266;-73
2022/08/17 05:48:18;;;;;;;0.40;0.40;;;16.80;99.90;;;;;;5068139;28;20185;-73
2022/08/17 05:51:22;;;;;;;0.40;0.40;;;17.10;95.70;;;;;;5072170;28;20179;-72
2022/08/17 05:54:08;;;;;;;0.50;0.50;;;17.00;81.60;;;;;;5048518;28;20259;-74
2022/08/17 05:56:50;;;;;;;0.40;0.40;;;17.00;92.40;;;;;;5070316;28;20253;-73
2022/08/17 05:59:27;;;;;;;0.50;0.50;;;17.20;99.90;;;;;;5071457;28;20196;-74
2022/08/17 06:01:56;;;;;;;0.50;0.50;;;17.80;25.20;;;;;;5067170;28;20666;-74
2022/08/17 06:04:25;;;;;;;0.40;0.40;;;18.10;1.00;;;;;;5062559;28;20194;-74
2022/08/17 06:07:03;;;;;;;0.40;0.40;;;18.60;1.00;;;;;;5070131;28;20179;-74
2022/08/17 06:09:45;;;;;;;0.40;0.40;;;18.90;1.00;;;;;;5068382;28;20185;-74
2022/08/17 06:12:37;;;;;;;0.40;0.40;;;18.60;1.00;;;;;;5068918;28;20409;-74
2022/08/17 06:15:23;;;;;;;0.30;0.30;;;18.30;1.00;;;;;;5063397;28;20186;-74
2022/08/17 06:17:52;;;;;;;0.30;0.30;;;18.20;1.00;;;;;;5070776;28;20179;-74
2022/08/17 06:20:19;;;;;;;0.40;0.40;;;18.30;1.00;;;;;;5071283;28;20204;-73
2022/08/17 06:23:01;;;;;;;0.40;0.40;;;18.40;1.00;;;;;;5071235;28;20300;-74
2022/08/17 06:25:39;;;;;;;0.30;0.30;;;18.40;1.00;;;;;;5071341;28;20182;-74
2022/08/17 06:28:08;;;;;;;0.40;0.40;;;18.50;1.00;;;;;;5067408;28;20186;-74
2022/08/17 06:30:47;;;;;;;0.40;0.40;;;18.60;1.00;;;;;;5066137;28;20643;-75
2022/08/17 06:33:21;;;;;;;0.40;0.40;;;18.80;1.00;;;;;;5062978;28;20209;-74
2022/08/17 06:36:01;;;;;;;0.23;0.23;;;19.40;1.00;;;;;;5064606;28;20244;-74
2022/08/17 06:39:15;;;;;;;0.30;0.30;;;19.40;99.90;;;;;;5072376;28;20183;-74
2022/08/17 06:42:05;;;;;;;0.40;0.40;;;19.40;99.90;;;;;;5006219;28;20191;-74
2022/08/17 06:44:46;;;;;;;0.40;0.40;;;19.40;1.00;;;;;;5005939;28;20218;-74
2022/08/17 06:47:27;;;;;;;0.40;0.40;;;19.60;99.90;;;;;;5062141;28;20200;-73
2022/08/17 06:50:14;;;;;;;0.30;0.30;;;19.90;1.00;;;;;;5072574;28;20300;-74
2022/08/17 06:52:48;;;;;;;0.40;0.40;;;20.20;99.90;;;;;;5071874;28;20280;-74
2022/08/17 06:55:22;;;;;;;0.40;0.40;;;20.40;1.00;;;;;;5070728;28;20188;-75
2022/08/17 06:57:56;;;;;;;0.40;0.40;;;20.60;99.90;;;;;;5064381;28;20648;-76
2022/08/17 07:00:25;;;;;;;0.30;0.30;;;20.60;1.00;;;;;;5067415;28;20192;-74
2022/08/17 07:02:54;;;;;;;0.20;0.20;;;20.50;1.00;;;;;;5064947;28;20195;-74
2022/08/17 07:05:24;;;;;;;0.30;0.30;;;20.70;1.00;;;;;;5064743;28;20272;-75
2022/08/17 07:08:01;;;;;;;0.30;0.30;;;20.80;99.90;;;;;;5067440;28;20778;-75
2022/08/17 07:10:41;;;;;;;0.30;0.30;;;21.10;99.90;;;;;;5065089;28;20186;-76
2022/08/17 07:13:45;;;;;;;0.30;0.30;;;21.80;1.00;;;;;;5065673;28;20620;-75
2022/08/17 07:16:36;;;;;;;0.30;0.30;;;21.90;99.90;;;;;;5029187;28;20695;-75
2022/08/17 07:19:03;;;;;;;0.30;0.30;;;22.20;99.90;;;;;;5067352;28;20175;-75
2022/08/17 07:21:53;;;;;;;0.27;0.27;;;22.30;99.90;;;;;;5068774;28;20178;-74
2022/08/17 07:24:30;;;;;;;0.30;0.30;;;22.30;93.90;;;;;;5069033;28;20194;-74
2022/08/17 07:27:13;;;;;;;0.40;0.40;;;22.60;4.60;;;;;;5069102;28;20642;-74
2022/08/17 07:29:52;;;;;;;0.40;0.40;;;23.10;1.00;;;;;;5068234;28;20175;-71
2022/08/17 07:32:25;;;;;;;0.30;0.30;;;23.30;1.00;;;;;;5069099;28;20174;-72
2022/08/17 07:35:07;;;;;;;0.30;0.30;;;23.50;1.00;;;;;;5067440;28;20210;-73
2022/08/17 07:37:35;;;;;;;0.40;0.40;;;23.60;1.00;;;;;;5067277;28;20210;-74
2022/08/17 07:40:29;;;;;;;0.30;0.30;;;23.60;1.00;;;;;;5071708;28;20579;-74
2022/08/17 07:43:26;;;;;;;0.40;0.40;;;24.10;1.00;;;;;;5065905;28;20194;-75
2022/08/17 07:48:49;;;;;;;0.50;0.50;;;24.00;1.00;;;;;;5064274;28;20185;-74
2022/08/17 07:51:19;;;;;;;0.30;0.30;;;24.60;1.00;;;;;;5065714;28;20178;-74
2022/08/17 07:53:44;;;;;;;0.50;0.50;;;24.70;1.00;;;;;;5065979;28;20221;-74
2022/08/17 07:56:29;;;;;;;0.40;0.40;;;24.40;1.00;;;;;;5065504;28;20671;-73
2022/08/17 07:59:35;;;;;;;0.40;0.40;;;24.20;1.00;;;;;;5067095;28;20185;-74
2022/08/17 08:02:04;;;;;;;0.40;0.40;;;23.90;1.00;;;;;;5061287;28;20277;-74
2022/08/17 08:04:38;;;;;;;0.30;0.30;;;23.30;1.00;;;;;;5064754;28;20199;-74
2022/08/17 08:07:11;;;;;;;0.30;0.30;;;23.30;1.00;;;;;;5063243;28;20185;-74
2022/08/17 08:09:58;;;;;;;0.30;0.30;;;23.20;99.40;;;;;;5064872;28;20178;-74
2022/08/17 08:12:36;;;;;;;0.40;0.40;;;23.00;99.90;;;;;;5060568;28;20206;-74
2022/08/17 08:15:22;;;;;;;0.30;0.30;;;22.70;99.90;;;;;;5065392;28;20323;-74
2022/08/17 08:17:56;;;;;;;0.30;0.30;;;22.50;99.90;;;;;;5062286;28;20190;-75
2022/08/17 08:20:32;;;;;;;0.40;0.40;;;22.80;99.90;;;;;;5062706;28;20655;-72
2022/08/17 08:23:18;;;;;;;0.30;0.30;;;22.90;99.90;;;;;;5071485;28;20351;-72
2022/08/17 08:26:08;;;;;;;0.30;0.30;;;23.10;99.90;;;;;;5069518;28;20178;-73
2022/08/17 08:28:53;;;;;;;0.40;0.40;;;23.40;99.90;;;;;;5071852;28;20242;-76
2022/08/17 08:31:33;;;;;;;0.40;0.40;;;23.60;10.60;;;;;;5071873;28;20581;-74
2022/08/17 08:35:04;;;;;;;0.30;0.30;;;23.70;1.00;;;;;;5102857;22;20594;-78
2022/08/17 08:37:51;;;;;;;0.40;0.40;;;23.80;1.00;;;;;;5091497;28;20178;-78
2022/08/17 08:40:16;;;;;;;0.40;0.40;;;24.00;1.00;;;;;;5085122;28;20633;-78
2022/08/17 08:43:04;;;;;;;0.30;0.30;;;24.20;1.00;;;;;;5087998;28;20229;-77
2022/08/17 08:45:49;;;;;;;0.30;0.30;;;24.30;1.00;;;;;;5094831;28;20194;-80
2022/08/17 08:48:29;;;;;;;0.30;0.30;;;24.10;1.00;;;;;;5097964;28;20201;-80
2022/08/17 08:51:25;;;;;;;0.40;0.40;;;23.90;1.00;;;;;;5078945;28;20268;-78
2022/08/17 08:53:56;;;;;;;0.30;0.30;;;23.70;1.00;;;;;;5088215;28;20218;-77
2022/08/17 08:56:26;;;;;;;0.40;0.40;;;23.70;1.00;;;;;;5088081;28;20196;-77
2022/08/17 08:59:06;;;;;;;0.30;0.30;;;23.60;1.00;;;;;;5088595;28;20691;-77
2022/08/17 09:01:55;;;;;;;0.30;0.30;;;23.60;1.00;;;;;;5087978;28;20181;-77
2022/08/17 09:04:26;;;;;;;0.40;0.40;;;23.50;1.00;;;;;;5088130;28;20239;-77
2022/08/17 09:06:58;;;;;;;0.40;0.40;;;23.50;1.00;;;;;;5087715;28;20182;-77
2022/08/17 09:09:59;;;;;;;0.40;0.40;;;23.60;1.00;;;;;;5087417;28;20177;-76
2022/08/17 09:12:49;;;;;;;0.40;0.40;;;23.60;1.00;;;;;;5087380;28;20186;-78
2022/08/17 09:15:24;;;;;;;0.30;0.30;;;23.60;1.00;;;;;;5087890;28;20185;-76
2022/08/17 09:18:19;;;;;;;0.40;0.40;;;23.60;1.00;;;;;;5089151;28;20314;-78
2022/08/17 09:21:18;;;;;;;0.30;0.30;;;23.50;99.90;;;;;;5087580;28;20178;-76
2022/08/17 09:23:58;;;;;;;0.40;0.40;;;23.50;99.90;;;;;;5087144;28;20209;-77
2022/08/17 09:26:38;;;;;;;0.30;0.30;;;23.60;99.90;;;;;;5087346;28;20196;-76
2022/08/17 09:29:13;;;;;;;0.40;0.40;;;23.50;99.90;;;;;;5086765;28;20201;-76
2022/08/17 09:31:55;;;;;;;0.30;0.30;;;23.50;15.10;;;;;;5085918;28;20181;-75
2022/08/17 09:34:46;;;;;;;0.30;0.30;;;23.30;1.00;;;;;;5088385;28;20736;-77
2022/08/17 09:37:49;;;;;;;0.40;0.40;;;23.30;12.60;;;;;;5087774;28;20177;-76
2022/08/17 09:40:22;;;;;;;0.30;0.30;;;23.30;99.90;;;;;;5086734;28;20529;-76
2022/08/17 09:43:08;;;;;;;0.40;0.40;;;23.20;86.50;;;;;;5090788;28;20209;-78
2022/08/17 09:45:49;;;;;;;0.40;0.40;;;23.30;99.90;;;;;;5077199;28;20178;-78
2022/08/17 09:48:32;;;;;;;0.33;0.33;;;23.20;1.00;;;;;;5081593;28;20249;-78
2022/08/17 09:51:09;;;;;;;0.30;0.30;;;23.30;1.00;;;;;;5081570;28;20197;-78
2022/08/17 09:53:37;;;;;;;0.37;0.37;;;23.40;1.00;;;;;;5074885;28;20645;-78
2022/08/17 09:56:34;;;;;;;0.40;0.40;;;23.60;1.00;;;;;;5085206;28;20182;-80
2022/08/17 09:59:12;;;;;;;0.30;0.30;;;23.90;1.00;;;;;;5077635;28;20171;-78
2022/08/17 10:01:41;;;;;;;0.30;0.30;;;24.10;1.00;;;;;;5082834;28;20246;-80
2022/08/17 10:04:13;;;;;;;0.43;0.43;;;24.30;1.00;;;;;;5085501;28;20212;-79
2022/08/17 10:07:21;;;;;;;0.47;0.47;;;24.20;1.00;;;;;;5086357;28;20276;-79
2022/08/17 10:10:10;;;;;;;0.40;0.40;;;24.10;1.00;;;;;;5085406;28;21365;-80
2022/08/17 10:12:58;;;;;;;0.33;0.33;;;24.10;1.00;;;;;;5091786;28;20194;-80
2022/08/17 10:15:29;;;;;;;0.53;0.53;;;24.00;1.00;;;;;;5093165;28;20208;-78
2022/08/17 10:18:10;;;;;;;0.40;0.40;;;24.00;1.00;;;;;;5086153;28;20201;-77
2022/08/17 10:26:11;;;;;;;0.50;0.50;;;24.10;1.00;;;;;;5078452;28;20541;-79
2022/08/17 10:26:33;;;;;;;0.37;0.37;;;24.10;1.00;;;;;;5079028;28;20516;-78
2022/08/17 10:29:20;;;;;;;0.47;0.47;;;24.10;1.00;;;;;;5080023;28;20174;-78
2022/08/17 10:31:54;;;;;;;0.30;0.30;;;24.00;1.00;;;;;;5078913;28;20667;-78
2022/08/17 10:34:43;;;;;;;0.30;0.30;;;24.10;1.00;;;;;;5080100;28;20221;-78
2022/08/17 10:37:41;;;;;;;0.30;0.30;;;24.20;1.00;;;;;;5076561;28;20675;-80
2022/08/17 10:40:20;;;;;;;0.40;0.40;;;24.30;1.00;;;;;;5078221;28;20202;-78
2022/08/17 10:42:49;;;;;;;0.40;0.40;;;24.30;1.00;;;;;;5083049;28;20229;-76
2022/08/17 10:45:36;;;;;;;0.50;0.50;;;24.30;1.00;;;;;;5072729;28;20543;-76
2022/08/17 10:48:05;;;;;;;0.30;0.30;;;24.30;1.00;;;;;;5071874;28;20193;-76
2022/08/17 10:51:02;;;;;;;0.33;0.33;;;24.40;1.00;;;;;;5073661;28;20166;-77
2022/08/17 10:53:30;;;;;;;0.40;0.40;;;24.40;1.00;;;;;;5072569;28;20617;-76
2022/08/17 10:56:11;;;;;;;0.30;0.30;;;24.50;1.00;;;;;;5067429;28;20185;-78
2022/08/17 10:58:58;;;;;;;0.47;0.47;;;24.80;1.00;;;;;;5073021;28;20182;-76
2022/08/17 11:01:32;;;;;;;0.40;0.40;;;25.20;1.00;;;;;;5073096;28;20551;-76
2022/08/17 11:04:20;;;;;;;0.40;0.40;;;25.60;1.00;;;;;;5054307;28;20186;-76
2022/08/17 11:07:00;;;;;;;0.30;0.30;;;25.70;1.00;;;;;;5072502;28;20182;-76
2022/08/17 11:10:06;;;;;;;0.30;0.30;;;25.70;1.00;;;;;;5052474;28;20171;-77
2022/08/17 11:13:21;;;;;;;0.30;0.30;;;25.90;1.00;;;;;;5057362;28;20199;-76
2022/08/17 11:15:58;;;;;;;0.40;0.40;;;25.90;1.00;;;;;;5020833;28;20192;-76
2022/08/17 11:18:52;;;;;;;0.50;0.50;;;26.00;1.00;;;;;;5059313;28;20200;-76
2022/08/17 11:21:56;;;;;;;0.40;0.40;;;25.90;1.00;;;;;;5068945;28;20179;-77
2022/08/17 11:24:35;;;;;;;0.50;0.50;;;25.80;1.00;;;;;;5074674;28;20320;-77
2022/08/17 11:27:12;;;;;;;0.30;0.30;;;25.50;1.00;;;;;;5067238;28;20839;-77
2022/08/17 11:29:55;;;;;;;0.40;0.40;;;25.40;1.00;;;;;;5074754;28;20697;-77
2022/08/17 11:32:39;;;;;;;0.30;0.30;;;25.20;1.00;;;;;;5068168;28;20244;-77
2022/08/17 11:35:37;;;;;;;0.23;0.23;;;24.90;1.00;;;;;;5060879;28;20208;-77
2022/08/17 11:38:52;;;;;;;0.40;0.40;;;24.80;1.00;;;;;;5060341;28;20193;-78
2022/08/17 11:41:43;;;;;;;0.33;0.33;;;24.70;1.00;;;;;;5024615;28;20414;-77
2022/08/17 11:44:21;;;;;;;0.40;0.40;;;24.70;1.00;;;;;;5068079;28;20248;-76
2022/08/17 11:53:36;;;;;;;0.30;0.30;;;24.40;1.00;;;;;;5068618;28;20308;-75
2022/08/17 11:56:02;;;;;;;0.30;0.30;;;24.30;1.00;;;;;;5070285;28;20274;-78
2022/08/17 11:58:43;;;;;;;0.50;0.50;;;24.30;1.00;;;;;;5070829;28;20186;-75
2022/08/17 12:01:31;;;;;;;0.40;0.40;;;24.20;1.00;;;;;;5065214;28;20674;-75
2022/08/17 12:04:23;;;;;;;0.40;0.40;;;24.10;1.00;;;;;;5070038;28;20209;-75
2022/08/17 12:06:55;;;;;;;0.30;0.30;;;24.10;1.00;;;;;;5071020;28;20194;-75
2022/08/17 12:09:25;;;;;;;0.40;0.40;;;24.30;1.00;;;;;;5064735;28;20185;-75
2022/08/17 12:12:12;;;;;;;0.40;0.40;;;24.50;1.00;;;;;;5070281;28;20186;-75
2022/08/17 12:14:44;;;;;;;0.40;0.40;;;24.90;1.00;;;;;;5069782;28;20874;-76
2022/08/17 12:17:12;;;;;;;0.40;0.40;;;25.40;1.00;;;;;;5071155;28;20187;-76
2022/08/17 12:19:41;;;;;;;0.40;0.40;;;25.90;1.00;;;;;;5062114;28;20195;-76
2022/08/17 12:22:24;;;;;;;0.50;0.50;;;26.20;1.00;;;;;;5064936;28;20194;-76
2022/08/17 12:24:55;;;;;;;0.50;0.50;;;26.30;1.00;;;;;;5069699;28;20265;-76
2022/08/17 12:27:32;;;;;;;0.40;0.40;;;26.40;1.00;;;;;;5070494;28;20640;-76
2022/08/17 12:30:01;;;;;;;0.50;0.50;;;26.50;1.00;;;;;;5070060;28;20182;-76
2022/08/17 12:32:32;;;;;;;0.47;0.47;;;26.60;1.00;;;;;;5070262;28;20198;-76
2022/08/17 12:34:59;;;;;;;0.53;0.53;;;26.60;1.00;;;;;;5062626;28;20661;-76
2022/08/17 12:37:30;;;;;;;0.50;0.50;;;26.80;1.00;;;;;;5051238;28;20182;-76
2022/08/17 12:40:00;;;;;;;0.50;0.50;;;26.90;1.00;;;;;;5071605;28;20182;-75
2022/08/17 12:42:36;;;;;;;0.50;0.50;;;27.00;1.00;;;;;;5080209;28;20202;-75
2022/08/17 12:45:03;;;;;;;0.60;0.60;;;27.10;1.00;;;;;;5069300;28;20232;-75
2022/08/17 12:47:30;;;;;;;0.47;0.47;;;27.10;1.00;;;;;;5074011;28;20265;-75
2022/08/17 12:50:08;;;;;;;0.50;0.50;;;26.80;1.00;;;;;;5076330;28;20175;-75
2022/08/17 12:52:37;;;;;;;0.60;0.60;;;26.90;1.00;;;;;;5073043;28;20243;-76
2022/08/17 12:55:09;;;;;;;0.60;0.60;;;27.50;1.00;;;;;;5070490;28;20175;-76
2022/08/17 12:57:38;;;;;;;0.53;0.53;;;28.10;1.00;;;;;;5071692;28;20220;-76
2022/08/17 13:00:16;;;;;;;0.50;0.50;;;28.30;1.00;;;;;;5052856;28;20179;-76
2022/08/17 13:02:44;;;;;;;0.50;0.50;;;28.50;1.00;;;;;;5069889;28;20236;-76
2022/08/17 13:05:21;;;;;;;0.60;0.60;;;28.80;1.00;;;;;;5071225;28;20174;-75
2022/08/17 13:07:47;;;;;;;0.50;0.50;;;28.90;1.00;;;;;;5071226;28;20170;-76
2022/08/17 13:10:21;;;;;;;0.50;0.50;;;28.90;1.00;;;;;;5070521;28;20174;-76
2022/08/17 13:12:49;;;;;;;0.50;0.50;;;29.00;1.00;;;;;;5069867;28;20242;-76
2022/08/17 13:15:40;;;;;;;0.50;0.50;;;29.00;1.00;;;;;;5070553;28;20178;-76
2022/08/17 13:18:27;;;;;;;0.60;0.60;;;29.30;1.00;;;;;;5070855;28;20198;-76
2022/08/17 13:20:56;;;;;;;0.33;0.33;;;28.80;1.00;;;;;;5064116;28;20190;-76
2022/08/17 13:23:30;;;;;;;0.53;0.53;;;28.60;1.00;;;;;;5063574;28;20186;-76
2022/08/17 13:26:03;;;;;;;0.50;0.50;;;28.90;1.00;;;;;;5074780;28;20198;-76
2022/08/17 13:28:31;;;;;;;0.40;0.40;;;29.00;1.00;;;;;;5074574;28;20175;-76
2022/08/17 13:31:19;;;;;;;0.70;0.70;;;29.10;1.00;;;;;;5073924;28;20261;-76
2022/08/17 13:33:44;;;;;;;0.50;0.50;;;29.10;1.00;;;;;;5068194;28;20222;-76
2022/08/17 13:36:10;;;;;;;0.50;0.50;;;29.20;1.00;;;;;;5073166;28;20274;-76
2022/08/17 13:38:46;;;;;;;0.50;0.50;;;28.90;1.00;;;;;;5074090;28;20224;-75
2022/08/17 13:41:35;;;;;;;0.60;0.60;;;29.20;1.00;;;;;;5073548;28;20275;-76
2022/08/17 13:44:03;;;;;;;0.50;0.50;;;30.00;1.00;;;;;;5071923;28;20264;-76
2022/08/17 13:46:30;;;;;;;0.50;0.50;;;30.20;1.00;;;;;;5072039;28;20174;-76
2022/08/17 13:49:10;;;;;;;0.50;0.50;;;30.30;1.00;;;;;;5073512;28;20721;-77
2022/08/17 13:51:44;;;;;;;0.60;0.60;;;30.20;1.00;;;;;;5071604;28;20190;-76
2022/08/17 13:54:24;;;;;;;0.60;0.60;;;30.10;1.00;;;;;;5072342;28;20283;-76
2022/08/17 13:56:53;;;;;;;0.60;0.60;;;29.70;1.00;;;;;;5073474;28;20178;-76